sensor_id;sensor_type;location;lat;lon;timestamp;P1;durP1;ratioP1;P2;durP2;ratioP2
50681;SDS011;36779;52.168;20.878;2023-11-19T00:02:27;29.10;;;10.90;;
50681;SDS011;36779;52.168;20.878;2023-11-19T00:05:17;26.70;;;8.90;;
50681;SDS011;36779;52.168;20.878;2023-11-19T00:08:13;35.00;;;10.70;;
50681;SDS011;36779;52.168;20.878;2023-11-19T00:11:03;35.20;;;11.60;;
50681;SDS011;36779;52.168;20.878;2023-11-19T00:13:53;44.00;;;13.90;;
50681;SDS011;36779;52.168;20.878;2023-11-19T00:16:38;47.60;;;13.40;;
50681;SDS011;36779;52.168;20.878;2023-11-19T00:19:28;42.50;;;13.70;;
50681;SDS011;36779;52.168;20.878;2023-11-19T00:22:17;45.60;;;12.60;;
50681;SDS011;36779;52.168;20.878;2023-11-19T00:25:09;46.90;;;13.20;;
50681;SDS011;36779;52.168;20.878;2023-11-19T00:28:02;48.80;;;14.00;;
50681;SDS011;36779;52.168;20.878;2023-11-19T00:30:54;40.70;;;12.90;;
50681;SDS011;36779;52.168;20.878;2023-11-19T00:33:49;42.50;;;13.20;;
50681;SDS011;36779;52.168;20.878;2023-11-19T00:36:38;40.70;;;13.50;;
50681;SDS011;36779;52.168;20.878;2023-11-19T00:39:28;40.10;;;12.60;;
50681;SDS011;36779;52.168;20.878;2023-11-19T00:42:17;31.50;;;10.40;;
50681;SDS011;36779;52.168;20.878;2023-11-19T00:45:07;45.00;;;13.40;;
50681;SDS011;36779;52.168;20.878;2023-11-19T00:47:56;47.70;;;14.00;;
50681;SDS011;36779;52.168;20.878;2023-11-19T00:50:47;45.80;;;13.60;;
50681;SDS011;36779;52.168;20.878;2023-11-19T00:53:37;40.70;;;13.20;;
50681;SDS011;36779;52.168;20.878;2023-11-19T00:56:16;45.90;;;14.30;;
50681;SDS011;36779;52.168;20.878;2023-11-19T00:58:50;47.20;;;14.40;;
50681;SDS011;36779;52.168;20.878;2023-11-19T01:01:39;49.70;;;14.50;;
50681;SDS011;36779;52.168;20.878;2023-11-19T01:04:34;48.60;;;14.50;;
50681;SDS011;36779;52.168;20.878;2023-11-19T01:07:28;44.00;;;14.20;;
50681;SDS011;36779;52.168;20.878;2023-11-19T01:10:19;48.10;;;13.60;;
50681;SDS011;36779;52.168;20.878;2023-11-19T01:13:10;50.30;;;14.30;;
50681;SDS011;36779;52.168;20.878;2023-11-19T01:16:00;55.10;;;15.30;;
50681;SDS011;36779;52.168;20.878;2023-11-19T01:18:50;43.60;;;14.10;;
50681;SDS011;36779;52.168;20.878;2023-11-19T01:21:49;41.20;;;13.90;;
50681;SDS011;36779;52.168;20.878;2023-11-19T01:24:40;53.40;;;14.00;;
50681;SDS011;36779;52.168;20.878;2023-11-19T01:27:29;56.20;;;14.40;;
50681;SDS011;36779;52.168;20.878;2023-11-19T01:30:22;47.00;;;14.00;;
50681;SDS011;36779;52.168;20.878;2023-11-19T01:33:12;56.30;;;15.60;;
50681;SDS011;36779;52.168;20.878;2023-11-19T01:38:49;43.40;;;13.00;;
50681;SDS011;36779;52.168;20.878;2023-11-19T01:44:27;44.80;;;13.40;;
50681;SDS011;36779;52.168;20.878;2023-11-19T01:47:17;40.80;;;12.00;;
50681;SDS011;36779;52.168;20.878;2023-11-19T01:49:56;48.40;;;12.80;;
50681;SDS011;36779;52.168;20.878;2023-11-19T01:52:49;37.60;;;11.40;;
50681;SDS011;36779;52.168;20.878;2023-11-19T01:55:40;45.20;;;14.50;;
50681;SDS011;36779;52.168;20.878;2023-11-19T01:58:30;47.90;;;14.00;;
50681;SDS011;36779;52.168;20.878;2023-11-19T02:01:21;38.60;;;11.90;;
50681;SDS011;36779;52.168;20.878;2023-11-19T02:04:12;39.60;;;13.30;;
50681;SDS011;36779;52.168;20.878;2023-11-19T02:07:02;39.70;;;13.10;;
50681;SDS011;36779;52.168;20.878;2023-11-19T02:09:53;53.00;;;14.00;;
50681;SDS011;36779;52.168;20.878;2023-11-19T02:12:43;47.40;;;13.90;;
50681;SDS011;36779;52.168;20.878;2023-11-19T02:15:33;44.00;;;14.10;;
50681;SDS011;36779;52.168;20.878;2023-11-19T02:18:22;46.00;;;13.40;;
50681;SDS011;36779;52.168;20.878;2023-11-19T02:21:08;43.40;;;12.90;;
50681;SDS011;36779;52.168;20.878;2023-11-19T02:23:58;42.80;;;13.70;;
50681;SDS011;36779;52.168;20.878;2023-11-19T02:26:51;50.20;;;15.20;;
50681;SDS011;36779;52.168;20.878;2023-11-19T02:29:47;41.90;;;12.70;;
50681;SDS011;36779;52.168;20.878;2023-11-19T02:32:36;39.50;;;10.70;;
50681;SDS011;36779;52.168;20.878;2023-11-19T02:35:17;36.20;;;11.80;;
50681;SDS011;36779;52.168;20.878;2023-11-19T02:38:06;48.30;;;13.50;;
50681;SDS011;36779;52.168;20.878;2023-11-19T02:40:56;38.10;;;12.00;;
50681;SDS011;36779;52.168;20.878;2023-11-19T02:43:37;42.20;;;12.30;;
50681;SDS011;36779;52.168;20.878;2023-11-19T02:46:26;43.80;;;12.40;;
50681;SDS011;36779;52.168;20.878;2023-11-19T02:49:16;34.60;;;11.90;;
50681;SDS011;36779;52.168;20.878;2023-11-19T02:51:52;40.00;;;11.30;;
50681;SDS011;36779;52.168;20.878;2023-11-19T02:54:43;40.90;;;11.20;;
50681;SDS011;36779;52.168;20.878;2023-11-19T02:57:26;42.30;;;12.20;;
50681;SDS011;36779;52.168;20.878;2023-11-19T03:00:22;39.10;;;10.80;;
50681;SDS011;36779;52.168;20.878;2023-11-19T03:03:13;37.00;;;12.50;;
50681;SDS011;36779;52.168;20.878;2023-11-19T03:06:08;34.70;;;11.50;;
50681;SDS011;36779;52.168;20.878;2023-11-19T03:08:57;32.50;;;10.70;;
50681;SDS011;36779;52.168;20.878;2023-11-19T03:11:47;35.60;;;10.40;;
50681;SDS011;36779;52.168;20.878;2023-11-19T03:14:37;29.10;;;8.90;;
50681;SDS011;36779;52.168;20.878;2023-11-19T03:17:27;29.70;;;10.00;;
50681;SDS011;36779;52.168;20.878;2023-11-19T03:20:17;36.90;;;10.50;;
50681;SDS011;36779;52.168;20.878;2023-11-19T03:22:58;33.10;;;11.50;;
50681;SDS011;36779;52.168;20.878;2023-11-19T03:25:49;31.20;;;10.50;;
50681;SDS011;36779;52.168;20.878;2023-11-19T03:28:37;39.30;;;11.40;;
50681;SDS011;36779;52.168;20.878;2023-11-19T03:31:26;33.90;;;11.10;;
50681;SDS011;36779;52.168;20.878;2023-11-19T03:34:18;32.00;;;10.00;;
50681;SDS011;36779;52.168;20.878;2023-11-19T03:37:09;42.30;;;11.70;;
50681;SDS011;36779;52.168;20.878;2023-11-19T03:39:59;42.60;;;12.80;;
50681;SDS011;36779;52.168;20.878;2023-11-19T03:42:43;36.10;;;10.70;;
50681;SDS011;36779;52.168;20.878;2023-11-19T03:48:21;32.70;;;10.60;;
50681;SDS011;36779;52.168;20.878;2023-11-19T03:51:10;36.00;;;10.30;;
50681;SDS011;36779;52.168;20.878;2023-11-19T03:54:01;34.10;;;10.40;;
50681;SDS011;36779;52.168;20.878;2023-11-19T03:56:51;43.20;;;11.00;;
50681;SDS011;36779;52.168;20.878;2023-11-19T03:59:43;34.90;;;11.40;;
50681;SDS011;36779;52.168;20.878;2023-11-19T04:02:32;42.80;;;12.40;;
50681;SDS011;36779;52.168;20.878;2023-11-19T04:05:22;49.90;;;12.50;;
50681;SDS011;36779;52.168;20.878;2023-11-19T04:08:04;42.30;;;12.90;;
50681;SDS011;36779;52.168;20.878;2023-11-19T04:10:53;49.30;;;12.70;;
50681;SDS011;36779;52.168;20.878;2023-11-19T04:13:46;47.40;;;13.30;;
50681;SDS011;36779;52.168;20.878;2023-11-19T04:16:27;38.20;;;11.50;;
50681;SDS011;36779;52.168;20.878;2023-11-19T04:19:17;35.00;;;11.40;;
50681;SDS011;36779;52.168;20.878;2023-11-19T04:24:57;39.40;;;10.40;;
50681;SDS011;36779;52.168;20.878;2023-11-19T04:27:46;37.40;;;10.70;;
50681;SDS011;36779;52.168;20.878;2023-11-19T04:30:29;30.80;;;10.60;;
50681;SDS011;36779;52.168;20.878;2023-11-19T04:33:19;44.00;;;12.60;;
50681;SDS011;36779;52.168;20.878;2023-11-19T04:36:10;37.40;;;11.90;;
50681;SDS011;36779;52.168;20.878;2023-11-19T04:39:01;41.80;;;11.30;;
50681;SDS011;36779;52.168;20.878;2023-11-19T04:41:56;43.00;;;12.30;;
50681;SDS011;36779;52.168;20.878;2023-11-19T04:44:39;36.30;;;10.20;;
50681;SDS011;36779;52.168;20.878;2023-11-19T04:47:27;33.50;;;11.00;;
50681;SDS011;36779;52.168;20.878;2023-11-19T04:50:22;30.70;;;10.60;;
50681;SDS011;36779;52.168;20.878;2023-11-19T04:53:13;33.00;;;9.60;;
50681;SDS011;36779;52.168;20.878;2023-11-19T04:56:08;28.30;;;9.40;;
50681;SDS011;36779;52.168;20.878;2023-11-19T04:58:58;29.80;;;10.20;;
50681;SDS011;36779;52.168;20.878;2023-11-19T05:01:47;37.60;;;10.00;;
50681;SDS011;36779;52.168;20.878;2023-11-19T05:04:36;33.40;;;10.50;;
50681;SDS011;36779;52.168;20.878;2023-11-19T05:07:30;39.20;;;11.70;;
50681;SDS011;36779;52.168;20.878;2023-11-19T05:10:19;38.40;;;11.30;;
50681;SDS011;36779;52.168;20.878;2023-11-19T05:13:09;37.90;;;11.30;;
50681;SDS011;36779;52.168;20.878;2023-11-19T05:15:58;31.10;;;10.30;;
50681;SDS011;36779;52.168;20.878;2023-11-19T05:18:47;40.70;;;12.00;;
50681;SDS011;36779;52.168;20.878;2023-11-19T05:21:41;38.30;;;11.30;;
50681;SDS011;36779;52.168;20.878;2023-11-19T05:24:31;35.20;;;10.40;;
50681;SDS011;36779;52.168;20.878;2023-11-19T05:27:24;42.70;;;12.10;;
50681;SDS011;36779;52.168;20.878;2023-11-19T05:30:07;39.40;;;11.80;;
50681;SDS011;36779;52.168;20.878;2023-11-19T05:32:58;40.60;;;11.90;;
50681;SDS011;36779;52.168;20.878;2023-11-19T05:35:49;33.00;;;10.10;;
50681;SDS011;36779;52.168;20.878;2023-11-19T05:38:38;33.70;;;11.20;;
50681;SDS011;36779;52.168;20.878;2023-11-19T05:41:29;41.60;;;11.40;;
50681;SDS011;36779;52.168;20.878;2023-11-19T05:44:19;43.50;;;11.60;;
50681;SDS011;36779;52.168;20.878;2023-11-19T05:47:08;42.90;;;12.50;;
50681;SDS011;36779;52.168;20.878;2023-11-19T05:49:56;35.60;;;10.40;;
50681;SDS011;36779;52.168;20.878;2023-11-19T05:52:46;44.50;;;11.90;;
50681;SDS011;36779;52.168;20.878;2023-11-19T05:55:35;39.80;;;11.40;;
50681;SDS011;36779;52.168;20.878;2023-11-19T05:58:32;36.80;;;10.70;;
50681;SDS011;36779;52.168;20.878;2023-11-19T06:01:24;37.40;;;10.40;;
50681;SDS011;36779;52.168;20.878;2023-11-19T06:04:13;33.50;;;10.30;;
50681;SDS011;36779;52.168;20.878;2023-11-19T06:07:05;33.00;;;10.50;;
50681;SDS011;36779;52.168;20.878;2023-11-19T06:09:57;37.90;;;11.30;;
50681;SDS011;36779;52.168;20.878;2023-11-19T06:12:26;31.60;;;10.40;;
50681;SDS011;36779;52.168;20.878;2023-11-19T06:15:16;33.30;;;10.30;;
50681;SDS011;36779;52.168;20.878;2023-11-19T06:18:05;29.10;;;9.90;;
50681;SDS011;36779;52.168;20.878;2023-11-19T06:20:57;32.60;;;9.50;;
50681;SDS011;36779;52.168;20.878;2023-11-19T06:23:45;23.70;;;8.50;;
50681;SDS011;36779;52.168;20.878;2023-11-19T06:26:34;25.40;;;7.70;;
50681;SDS011;36779;52.168;20.878;2023-11-19T06:29:24;31.10;;;8.20;;
50681;SDS011;36779;52.168;20.878;2023-11-19T06:32:14;25.00;;;7.70;;
50681;SDS011;36779;52.168;20.878;2023-11-19T06:34:59;18.90;;;7.60;;
50681;SDS011;36779;52.168;20.878;2023-11-19T06:37:50;17.90;;;5.40;;
50681;SDS011;36779;52.168;20.878;2023-11-19T06:40:40;21.90;;;8.00;;
50681;SDS011;36779;52.168;20.878;2023-11-19T06:43:26;21.40;;;7.10;;
50681;SDS011;36779;52.168;20.878;2023-11-19T06:46:29;20.40;;;5.90;;
50681;SDS011;36779;52.168;20.878;2023-11-19T06:49:21;12.20;;;5.50;;
50681;SDS011;36779;52.168;20.878;2023-11-19T06:52:12;12.90;;;4.40;;
50681;SDS011;36779;52.168;20.878;2023-11-19T06:55:00;11.70;;;4.30;;
50681;SDS011;36779;52.168;20.878;2023-11-19T07:00:45;12.00;;;3.80;;
50681;SDS011;36779;52.168;20.878;2023-11-19T07:03:39;8.00;;;3.60;;
50681;SDS011;36779;52.168;20.878;2023-11-19T07:06:28;17.60;;;5.20;;
50681;SDS011;36779;52.168;20.878;2023-11-19T07:09:12;17.70;;;6.20;;
50681;SDS011;36779;52.168;20.878;2023-11-19T07:12:03;17.70;;;5.80;;
50681;SDS011;36779;52.168;20.878;2023-11-19T07:14:58;18.70;;;6.50;;
50681;SDS011;36779;52.168;20.878;2023-11-19T07:17:50;16.20;;;5.90;;
50681;SDS011;36779;52.168;20.878;2023-11-19T07:20:47;16.80;;;6.80;;
50681;SDS011;36779;52.168;20.878;2023-11-19T07:23:37;12.30;;;5.60;;
50681;SDS011;36779;52.168;20.878;2023-11-19T07:26:27;13.60;;;5.40;;
50681;SDS011;36779;52.168;20.878;2023-11-19T07:29:22;17.80;;;6.20;;
50681;SDS011;36779;52.168;20.878;2023-11-19T07:32:15;17.50;;;6.30;;
50681;SDS011;36779;52.168;20.878;2023-11-19T07:35:07;16.60;;;6.30;;
50681;SDS011;36779;52.168;20.878;2023-11-19T07:37:46;10.40;;;4.40;;
50681;SDS011;36779;52.168;20.878;2023-11-19T07:40:37;15.50;;;5.50;;
50681;SDS011;36779;52.168;20.878;2023-11-19T07:43:27;17.50;;;6.20;;
50681;SDS011;36779;52.168;20.878;2023-11-19T07:46:18;12.20;;;5.50;;
50681;SDS011;36779;52.168;20.878;2023-11-19T07:49:09;14.50;;;5.30;;
50681;SDS011;36779;52.168;20.878;2023-11-19T07:51:59;13.50;;;5.60;;
50681;SDS011;36779;52.168;20.878;2023-11-19T07:54:51;14.40;;;5.60;;
50681;SDS011;36779;52.168;20.878;2023-11-19T07:57:41;16.40;;;6.10;;
50681;SDS011;36779;52.168;20.878;2023-11-19T08:00:30;17.00;;;6.60;;
50681;SDS011;36779;52.168;20.878;2023-11-19T08:03:20;14.00;;;5.70;;
50681;SDS011;36779;52.168;20.878;2023-11-19T08:06:05;16.80;;;6.30;;
50681;SDS011;36779;52.168;20.878;2023-11-19T08:08:57;17.20;;;6.40;;
50681;SDS011;36779;52.168;20.878;2023-11-19T08:11:47;19.70;;;6.70;;
50681;SDS011;36779;52.168;20.878;2023-11-19T08:14:40;23.70;;;7.70;;
50681;SDS011;36779;52.168;20.878;2023-11-19T08:17:30;15.20;;;5.70;;
50681;SDS011;36779;52.168;20.878;2023-11-19T08:20:22;17.90;;;6.30;;
50681;SDS011;36779;52.168;20.878;2023-11-19T08:23:12;19.50;;;6.60;;
50681;SDS011;36779;52.168;20.878;2023-11-19T08:26:03;17.90;;;6.50;;
50681;SDS011;36779;52.168;20.878;2023-11-19T08:31:59;16.20;;;5.90;;
50681;SDS011;36779;52.168;20.878;2023-11-19T08:34:50;15.70;;;6.00;;
50681;SDS011;36779;52.168;20.878;2023-11-19T08:37:39;16.80;;;7.00;;
50681;SDS011;36779;52.168;20.878;2023-11-19T08:40:33;14.60;;;5.60;;
50681;SDS011;36779;52.168;20.878;2023-11-19T08:43:22;16.20;;;7.00;;
50681;SDS011;36779;52.168;20.878;2023-11-19T08:46:09;20.80;;;6.40;;
50681;SDS011;36779;52.168;20.878;2023-11-19T08:48:52;19.50;;;7.40;;
50681;SDS011;36779;52.168;20.878;2023-11-19T08:51:36;19.10;;;7.10;;
50681;SDS011;36779;52.168;20.878;2023-11-19T08:54:38;15.70;;;6.00;;
50681;SDS011;36779;52.168;20.878;2023-11-19T08:57:31;19.00;;;6.60;;
50681;SDS011;36779;52.168;20.878;2023-11-19T09:00:21;14.50;;;5.50;;
50681;SDS011;36779;52.168;20.878;2023-11-19T09:03:11;18.00;;;6.10;;
50681;SDS011;36779;52.168;20.878;2023-11-19T09:06:12;15.40;;;5.50;;
50681;SDS011;36779;52.168;20.878;2023-11-19T09:09:02;15.80;;;6.10;;
50681;SDS011;36779;52.168;20.878;2023-11-19T09:11:56;21.00;;;6.10;;
50681;SDS011;36779;52.168;20.878;2023-11-19T09:14:45;17.80;;;6.10;;
50681;SDS011;36779;52.168;20.878;2023-11-19T09:17:37;18.20;;;6.10;;
50681;SDS011;36779;52.168;20.878;2023-11-19T09:20:26;12.00;;;4.80;;
50681;SDS011;36779;52.168;20.878;2023-11-19T09:23:26;18.10;;;6.50;;
50681;SDS011;36779;52.168;20.878;2023-11-19T09:26:16;18.60;;;6.20;;
50681;SDS011;36779;52.168;20.878;2023-11-19T09:29:08;20.30;;;7.20;;
50681;SDS011;36779;52.168;20.878;2023-11-19T09:31:57;17.30;;;6.00;;
50681;SDS011;36779;52.168;20.878;2023-11-19T09:34:47;16.30;;;6.50;;
50681;SDS011;36779;52.168;20.878;2023-11-19T09:37:36;16.10;;;6.50;;
50681;SDS011;36779;52.168;20.878;2023-11-19T09:40:26;13.90;;;5.10;;
50681;SDS011;36779;52.168;20.878;2023-11-19T09:43:16;19.80;;;6.30;;
50681;SDS011;36779;52.168;20.878;2023-11-19T09:46:09;17.20;;;7.30;;
50681;SDS011;36779;52.168;20.878;2023-11-19T09:49:01;20.40;;;6.40;;
50681;SDS011;36779;52.168;20.878;2023-11-19T09:55:51;20.60;;;7.40;;
50681;SDS011;36779;52.168;20.878;2023-11-19T09:58:37;20.30;;;6.20;;
50681;SDS011;36779;52.168;20.878;2023-11-19T10:01:26;18.80;;;6.80;;
50681;SDS011;36779;52.168;20.878;2023-11-19T10:04:17;21.60;;;7.50;;
50681;SDS011;36779;52.168;20.878;2023-11-19T10:07:07;21.40;;;6.90;;
50681;SDS011;36779;52.168;20.878;2023-11-19T10:09:59;16.00;;;5.90;;
50681;SDS011;36779;52.168;20.878;2023-11-19T10:12:50;20.30;;;6.80;;
50681;SDS011;36779;52.168;20.878;2023-11-19T10:18:27;18.70;;;6.20;;
50681;SDS011;36779;52.168;20.878;2023-11-19T10:21:18;19.80;;;7.10;;
50681;SDS011;36779;52.168;20.878;2023-11-19T10:24:10;17.70;;;6.70;;
50681;SDS011;36779;52.168;20.878;2023-11-19T10:26:59;16.90;;;6.90;;
50681;SDS011;36779;52.168;20.878;2023-11-19T10:29:50;19.60;;;7.00;;
50681;SDS011;36779;52.168;20.878;2023-11-19T10:32:32;22.70;;;6.70;;
50681;SDS011;36779;52.168;20.878;2023-11-19T10:35:22;23.30;;;7.30;;
50681;SDS011;36779;52.168;20.878;2023-11-19T10:38:14;22.90;;;7.90;;
50681;SDS011;36779;52.168;20.878;2023-11-19T10:41:15;18.80;;;7.30;;
50681;SDS011;36779;52.168;20.878;2023-11-19T10:44:32;15.90;;;6.60;;
50681;SDS011;36779;52.168;20.878;2023-11-19T10:47:26;21.10;;;6.80;;
50681;SDS011;36779;52.168;20.878;2023-11-19T10:50:21;17.80;;;7.20;;
50681;SDS011;36779;52.168;20.878;2023-11-19T10:53:12;20.90;;;7.10;;
50681;SDS011;36779;52.168;20.878;2023-11-19T10:56:04;18.20;;;7.50;;
50681;SDS011;36779;52.168;20.878;2023-11-19T10:58:56;18.20;;;6.30;;
50681;SDS011;36779;52.168;20.878;2023-11-19T11:01:52;23.00;;;7.40;;
50681;SDS011;36779;52.168;20.878;2023-11-19T11:04:33;19.20;;;8.30;;
50681;SDS011;36779;52.168;20.878;2023-11-19T11:07:18;23.90;;;8.60;;
50681;SDS011;36779;52.168;20.878;2023-11-19T11:10:22;26.10;;;8.80;;
50681;SDS011;36779;52.168;20.878;2023-11-19T11:13:14;19.80;;;7.70;;
50681;SDS011;36779;52.168;20.878;2023-11-19T11:16:07;19.90;;;7.10;;
50681;SDS011;36779;52.168;20.878;2023-11-19T11:18:58;19.40;;;7.00;;
50681;SDS011;36779;52.168;20.878;2023-11-19T11:21:49;21.70;;;7.70;;
50681;SDS011;36779;52.168;20.878;2023-11-19T11:25:01;20.90;;;8.30;;
50681;SDS011;36779;52.168;20.878;2023-11-19T11:28:06;24.60;;;8.50;;
50681;SDS011;36779;52.168;20.878;2023-11-19T11:31:15;17.70;;;6.50;;
50681;SDS011;36779;52.168;20.878;2023-11-19T11:37:17;17.80;;;6.70;;
50681;SDS011;36779;52.168;20.878;2023-11-19T11:40:14;18.30;;;6.00;;
50681;SDS011;36779;52.168;20.878;2023-11-19T11:42:55;19.50;;;7.90;;
50681;SDS011;36779;52.168;20.878;2023-11-19T11:45:53;21.00;;;7.10;;
50681;SDS011;36779;52.168;20.878;2023-11-19T11:48:43;24.90;;;7.80;;
50681;SDS011;36779;52.168;20.878;2023-11-19T11:51:58;18.50;;;7.10;;
50681;SDS011;36779;52.168;20.878;2023-11-19T11:54:49;18.30;;;7.00;;
50681;SDS011;36779;52.168;20.878;2023-11-19T11:57:40;20.80;;;7.90;;
50681;SDS011;36779;52.168;20.878;2023-11-19T12:00:30;23.50;;;8.30;;
50681;SDS011;36779;52.168;20.878;2023-11-19T12:03:37;17.30;;;5.50;;
50681;SDS011;36779;52.168;20.878;2023-11-19T12:06:31;14.70;;;6.10;;
50681;SDS011;36779;52.168;20.878;2023-11-19T12:15:05;21.70;;;7.90;;
50681;SDS011;36779;52.168;20.878;2023-11-19T12:17:58;20.20;;;6.30;;
50681;SDS011;36779;52.168;20.878;2023-11-19T12:20:50;18.70;;;6.90;;
50681;SDS011;36779;52.168;20.878;2023-11-19T12:23:45;25.00;;;6.60;;
50681;SDS011;36779;52.168;20.878;2023-11-19T12:26:39;19.30;;;6.90;;
50681;SDS011;36779;52.168;20.878;2023-11-19T12:29:21;21.90;;;6.50;;
50681;SDS011;36779;52.168;20.878;2023-11-19T12:32:13;24.10;;;9.10;;
50681;SDS011;36779;52.168;20.878;2023-11-19T12:35:04;19.50;;;7.40;;
50681;SDS011;36779;52.168;20.878;2023-11-19T12:37:54;25.20;;;9.10;;
50681;SDS011;36779;52.168;20.878;2023-11-19T12:40:45;14.70;;;5.40;;
50681;SDS011;36779;52.168;20.878;2023-11-19T12:43:34;26.70;;;9.20;;
50681;SDS011;36779;52.168;20.878;2023-11-19T12:46:36;17.90;;;6.60;;
50681;SDS011;36779;52.168;20.878;2023-11-19T12:49:27;23.40;;;7.60;;
50681;SDS011;36779;52.168;20.878;2023-11-19T12:52:20;18.70;;;8.20;;
50681;SDS011;36779;52.168;20.878;2023-11-19T12:55:06;30.20;;;10.50;;
50681;SDS011;36779;52.168;20.878;2023-11-19T12:58:31;26.30;;;8.70;;
50681;SDS011;36779;52.168;20.878;2023-11-19T13:01:16;24.10;;;8.40;;
50681;SDS011;36779;52.168;20.878;2023-11-19T13:04:16;22.00;;;8.00;;
50681;SDS011;36779;52.168;20.878;2023-11-19T13:07:06;19.30;;;7.60;;
50681;SDS011;36779;52.168;20.878;2023-11-19T13:09:36;22.40;;;8.20;;
50681;SDS011;36779;52.168;20.878;2023-11-19T13:12:51;29.00;;;8.40;;
50681;SDS011;36779;52.168;20.878;2023-11-19T13:15:49;22.70;;;8.00;;
50681;SDS011;36779;52.168;20.878;2023-11-19T13:18:38;23.20;;;8.40;;
50681;SDS011;36779;52.168;20.878;2023-11-19T13:21:25;24.70;;;8.70;;
50681;SDS011;36779;52.168;20.878;2023-11-19T13:24:14;23.80;;;7.20;;
50681;SDS011;36779;52.168;20.878;2023-11-19T13:26:56;24.80;;;8.50;;
50681;SDS011;36779;52.168;20.878;2023-11-19T13:29:47;24.20;;;8.90;;
50681;SDS011;36779;52.168;20.878;2023-11-19T13:35:26;31.60;;;9.30;;
50681;SDS011;36779;52.168;20.878;2023-11-19T13:38:16;25.30;;;9.30;;
50681;SDS011;36779;52.168;20.878;2023-11-19T13:41:06;22.20;;;7.80;;
50681;SDS011;36779;52.168;20.878;2023-11-19T13:43:59;31.90;;;9.20;;
50681;SDS011;36779;52.168;20.878;2023-11-19T13:46:32;32.80;;;9.90;;
50681;SDS011;36779;52.168;20.878;2023-11-19T13:49:22;30.60;;;9.10;;
50681;SDS011;36779;52.168;20.878;2023-11-19T13:52:16;27.10;;;9.20;;
50681;SDS011;36779;52.168;20.878;2023-11-19T13:55:08;22.70;;;7.90;;
50681;SDS011;36779;52.168;20.878;2023-11-19T13:57:51;28.80;;;9.90;;
50681;SDS011;36779;52.168;20.878;2023-11-19T14:01:03;26.80;;;10.00;;
50681;SDS011;36779;52.168;20.878;2023-11-19T14:03:53;28.00;;;9.10;;
50681;SDS011;36779;52.168;20.878;2023-11-19T14:06:45;30.60;;;9.90;;
50681;SDS011;36779;52.168;20.878;2023-11-19T14:09:35;26.10;;;8.60;;
50681;SDS011;36779;52.168;20.878;2023-11-19T14:15:36;25.80;;;9.10;;
50681;SDS011;36779;52.168;20.878;2023-11-19T14:18:28;21.10;;;8.10;;
50681;SDS011;36779;52.168;20.878;2023-11-19T14:21:15;22.30;;;7.60;;
50681;SDS011;36779;52.168;20.878;2023-11-19T14:24:06;26.40;;;8.70;;
50681;SDS011;36779;52.168;20.878;2023-11-19T14:26:51;23.90;;;9.10;;
50681;SDS011;36779;52.168;20.878;2023-11-19T14:29:44;24.40;;;8.80;;
50681;SDS011;36779;52.168;20.878;2023-11-19T14:32:20;25.80;;;8.40;;
50681;SDS011;36779;52.168;20.878;2023-11-19T14:35:10;31.30;;;10.80;;
50681;SDS011;36779;52.168;20.878;2023-11-19T14:38:06;30.80;;;10.00;;
50681;SDS011;36779;52.168;20.878;2023-11-19T14:40:56;27.30;;;9.20;;
50681;SDS011;36779;52.168;20.878;2023-11-19T14:43:48;30.10;;;10.70;;
50681;SDS011;36779;52.168;20.878;2023-11-19T14:46:37;20.30;;;7.70;;
50681;SDS011;36779;52.168;20.878;2023-11-19T14:49:27;29.80;;;9.40;;
50681;SDS011;36779;52.168;20.878;2023-11-19T14:55:07;28.40;;;8.30;;
50681;SDS011;36779;52.168;20.878;2023-11-19T14:57:58;34.00;;;11.60;;
50681;SDS011;36779;52.168;20.878;2023-11-19T15:00:59;40.60;;;12.70;;
50681;SDS011;36779;52.168;20.878;2023-11-19T15:03:52;44.20;;;14.30;;
50681;SDS011;36779;52.168;20.878;2023-11-19T15:06:48;37.00;;;11.50;;
50681;SDS011;36779;52.168;20.878;2023-11-19T15:09:38;32.00;;;11.30;;
50681;SDS011;36779;52.168;20.878;2023-11-19T15:12:28;32.00;;;10.60;;
50681;SDS011;36779;52.168;20.878;2023-11-19T15:15:14;28.80;;;11.30;;
50681;SDS011;36779;52.168;20.878;2023-11-19T15:18:24;39.70;;;11.40;;
50681;SDS011;36779;52.168;20.878;2023-11-19T15:21:15;37.20;;;13.80;;
50681;SDS011;36779;52.168;20.878;2023-11-19T15:24:06;25.00;;;9.30;;
50681;SDS011;36779;52.168;20.878;2023-11-19T15:27:02;30.00;;;10.10;;
50681;SDS011;36779;52.168;20.878;2023-11-19T15:29:44;28.00;;;9.30;;
50681;SDS011;36779;52.168;20.878;2023-11-19T15:32:34;26.70;;;9.70;;
50681;SDS011;36779;52.168;20.878;2023-11-19T15:35:25;31.60;;;11.30;;
50681;SDS011;36779;52.168;20.878;2023-11-19T15:38:19;31.30;;;10.60;;
50681;SDS011;36779;52.168;20.878;2023-11-19T15:41:01;28.10;;;9.70;;
50681;SDS011;36779;52.168;20.878;2023-11-19T15:43:52;29.60;;;9.60;;
50681;SDS011;36779;52.168;20.878;2023-11-19T15:46:28;30.70;;;10.40;;
50681;SDS011;36779;52.168;20.878;2023-11-19T15:49:17;29.80;;;10.50;;
50681;SDS011;36779;52.168;20.878;2023-11-19T15:52:07;22.10;;;8.50;;
50681;SDS011;36779;52.168;20.878;2023-11-19T15:55:04;28.10;;;10.30;;
50681;SDS011;36779;52.168;20.878;2023-11-19T16:00:48;28.60;;;8.80;;
50681;SDS011;36779;52.168;20.878;2023-11-19T16:03:50;35.50;;;10.40;;
50681;SDS011;36779;52.168;20.878;2023-11-19T16:06:40;33.00;;;10.60;;
50681;SDS011;36779;52.168;20.878;2023-11-19T16:09:31;30.90;;;10.00;;
50681;SDS011;36779;52.168;20.878;2023-11-19T16:12:24;27.90;;;8.60;;
50681;SDS011;36779;52.168;20.878;2023-11-19T16:15:11;26.70;;;9.20;;
50681;SDS011;36779;52.168;20.878;2023-11-19T16:18:02;27.80;;;9.60;;
50681;SDS011;36779;52.168;20.878;2023-11-19T16:20:51;26.40;;;8.80;;
50681;SDS011;36779;52.168;20.878;2023-11-19T16:23:43;27.20;;;9.50;;
50681;SDS011;36779;52.168;20.878;2023-11-19T16:26:20;30.00;;;9.90;;
50681;SDS011;36779;52.168;20.878;2023-11-19T16:28:52;21.10;;;8.10;;
50681;SDS011;36779;52.168;20.878;2023-11-19T16:31:21;30.90;;;9.40;;
50681;SDS011;36779;52.168;20.878;2023-11-19T16:34:14;27.90;;;9.40;;
50681;SDS011;36779;52.168;20.878;2023-11-19T16:37:10;21.40;;;8.30;;
50681;SDS011;36779;52.168;20.878;2023-11-19T16:39:59;24.30;;;9.10;;
50681;SDS011;36779;52.168;20.878;2023-11-19T16:42:49;25.20;;;10.10;;
50681;SDS011;36779;52.168;20.878;2023-11-19T16:45:38;23.50;;;8.20;;
50681;SDS011;36779;52.168;20.878;2023-11-19T16:48:31;17.20;;;6.40;;
50681;SDS011;36779;52.168;20.878;2023-11-19T16:51:20;25.90;;;9.10;;
50681;SDS011;36779;52.168;20.878;2023-11-19T16:54:03;17.80;;;7.10;;
50681;SDS011;36779;52.168;20.878;2023-11-19T16:56:54;22.10;;;8.00;;
50681;SDS011;36779;52.168;20.878;2023-11-19T16:59:44;20.60;;;7.80;;
50681;SDS011;36779;52.168;20.878;2023-11-19T17:02:35;22.20;;;8.70;;
50681;SDS011;36779;52.168;20.878;2023-11-19T17:05:13;23.60;;;8.20;;
50681;SDS011;36779;52.168;20.878;2023-11-19T17:08:00;21.20;;;8.10;;
50681;SDS011;36779;52.168;20.878;2023-11-19T17:10:58;16.80;;;5.80;;
50681;SDS011;36779;52.168;20.878;2023-11-19T17:13:47;18.30;;;6.40;;
50681;SDS011;36779;52.168;20.878;2023-11-19T17:16:41;21.20;;;6.50;;